sensor_id;sensor_type;location;lat;lon;timestamp;pressure;altitude;pressure_sealevel;temperature;humidity
37064;BME280;23211;53.912;9.138;2022-12-29T19:46:07;100202.34;;;13.15;57.56
37064;BME280;23211;53.912;9.138;2022-12-29T19:48:53;100202.34;;;13.15;57.56
37064;BME280;23211;53.912;9.138;2022-12-29T19:51:43;100202.63;;;13.14;57.57
37064;BME280;23211;53.912;9.138;2022-12-29T19:54:29;100211.50;;;13.14;57.51
37064;BME280;23211;53.912;9.138;2022-12-29T19:57:14;100216.63;;;13.11;57.50
37064;BME280;23211;53.912;9.138;2022-12-29T20:00:00;100219.59;;;13.09;57.48
37064;BME280;23211;53.912;9.138;2022-12-29T20:02:46;100220.97;;;13.07;57.51
37064;BME280;23211;53.912;9.138;2022-12-29T20:05:32;100216.16;;;13.04;57.30
37064;BME280;23211;53.912;9.138;2022-12-29T20:08:18;100228.28;;;13.01;57.36
37064;BME280;23211;53.912;9.138;2022-12-29T20:11:06;100226.16;;;12.98;57.32
37064;BME280;23211;53.912;9.138;2022-12-29T20:13:52;100235.59;;;12.96;57.63
37064;BME280;23211;53.912;9.138;2022-12-29T20:16:39;100240.97;;;12.96;57.74
37064;BME280;23211;53.912;9.138;2022-12-29T20:19:24;100235.88;;;12.94;57.72
37064;BME280;23211;53.912;9.138;2022-12-29T20:22:10;100243.94;;;12.94;57.68
37064;BME280;23211;53.912;9.138;2022-12-29T20:24:56;100249.59;;;12.93;57.62
37064;BME280;23211;53.912;9.138;2022-12-29T20:27:42;100246.91;;;12.93;57.64
37064;BME280;23211;53.912;9.138;2022-12-29T20:30:28;100252.56;;;12.91;57.87
37064;BME280;23211;53.912;9.138;2022-12-29T20:33:14;100247.47;;;12.89;58.18
37064;BME280;23211;53.912;9.138;2022-12-29T20:36:13;100252.03;;;12.89;58.08
37064;BME280;23211;53.912;9.138;2022-12-29T20:39:06;100253.38;;;12.91;58.36
37064;BME280;23211;53.912;9.138;2022-12-29T20:41:52;100256.56;;;12.94;58.64
37064;BME280;23211;53.912;9.138;2022-12-29T20:44:38;100259.50;;;12.97;58.61
37064;BME280;23211;53.912;9.138;2022-12-29T20:47:24;100265.94;;;13.01;58.57
37064;BME280;23211;53.912;9.138;2022-12-29T20:50:10;100270.75;;;13.04;58.50
37064;BME280;23211;53.912;9.138;2022-12-29T20:52:56;100265.88;;;13.06;58.51
37064;BME280;23211;53.912;9.138;2022-12-29T20:55:42;100266.41;;;13.08;58.27
37064;BME280;23211;53.912;9.138;2022-12-29T20:58:29;100264.25;;;13.10;58.52
37064;BME280;23211;53.912;9.138;2022-12-29T21:01:17;100277.41;;;13.12;58.72
37064;BME280;23211;53.912;9.138;2022-12-29T21:04:03;100274.44;;;13.13;58.65
37064;BME280;23211;53.912;9.138;2022-12-29T21:06:50;100278.44;;;13.16;58.76
37064;BME280;23211;53.912;9.138;2022-12-29T21:09:36;100276.31;;;13.18;58.70
37064;BME280;23211;53.912;9.138;2022-12-29T21:12:22;100284.38;;;13.18;58.76
37064;BME280;23211;53.912;9.138;2022-12-29T21:15:08;100277.13;;;13.18;58.65
37064;BME280;23211;53.912;9.138;2022-12-29T21:17:54;100282.50;;;13.18;58.28
37064;BME280;23211;53.912;9.138;2022-12-29T21:20:40;100281.13;;;13.16;58.32
37064;BME280;23211;53.912;9.138;2022-12-29T21:23:27;100280.63;;;13.14;57.93
37064;BME280;23211;53.912;9.138;2022-12-29T21:26:15;100282.25;;;13.10;58.00
37064;BME280;23211;53.912;9.138;2022-12-29T21:29:02;100287.41;;;13.06;57.97
37064;BME280;23211;53.912;9.138;2022-12-29T21:31:48;100285.56;;;13.02;57.77
37064;BME280;23211;53.912;9.138;2022-12-29T21:34:34;100271.31;;;13.01;57.83
37064;BME280;23211;53.912;9.138;2022-12-29T21:37:20;100275.63;;;12.97;57.92
37064;BME280;23211;53.912;9.138;2022-12-29T21:40:06;100281.56;;;12.94;57.92
37064;BME280;23211;53.912;9.138;2022-12-29T21:42:52;100283.22;;;12.90;57.87
37064;BME280;23211;53.912;9.138;2022-12-29T21:45:37;100281.38;;;12.85;57.79
37064;BME280;23211;53.912;9.138;2022-12-29T21:48:23;100288.38;;;12.81;57.89
37064;BME280;23211;53.912;9.138;2022-12-29T21:51:12;100295.41;;;12.77;57.95
37064;BME280;23211;53.912;9.138;2022-12-29T21:54:23;100290.06;;;12.72;58.08
37064;BME280;23211;53.912;9.138;2022-12-29T21:57:27;100298.22;;;12.57;58.38
37064;BME280;23211;53.912;9.138;2022-12-29T22:00:36;100292.53;;;12.64;58.24
37064;BME280;23211;53.912;9.138;2022-12-29T22:03:41;100302.75;;;12.62;58.16
37064;BME280;23211;53.912;9.138;2022-12-29T22:06:45;100307.34;;;12.61;58.06
37064;BME280;23211;53.912;9.138;2022-12-29T22:09:49;100310.28;;;12.59;58.29
37064;BME280;23211;53.912;9.138;2022-12-29T22:12:54;100320.25;;;12.59;58.06
37064;BME280;23211;53.912;9.138;2022-12-29T22:15:46;100310.56;;;12.58;58.12
37064;BME280;23211;53.912;9.138;2022-12-29T22:18:32;100331.28;;;12.57;58.29
37064;BME280;23211;53.912;9.138;2022-12-29T22:21:18;100331.28;;;12.57;58.06
37064;BME280;23211;53.912;9.138;2022-12-29T22:24:04;100336.66;;;12.57;58.10
37064;BME280;23211;53.912;9.138;2022-12-29T22:26:50;100331.28;;;12.57;58.02
37064;BME280;23211;53.912;9.138;2022-12-29T22:29:36;100335.56;;;12.58;57.98
37064;BME280;23211;53.912;9.138;2022-12-29T22:32:22;100332.88;;;12.58;58.10
37064;BME280;23211;53.912;9.138;2022-12-29T22:35:09;100332.06;;;12.58;58.09
37064;BME280;23211;53.912;9.138;2022-12-29T22:37:55;100338.53;;;12.57;58.52
37064;BME280;23211;53.912;9.138;2022-12-29T22:40:41;100335.56;;;12.58;58.41
37064;BME280;23211;53.912;9.138;2022-12-29T22:43:27;100336.91;;;12.61;58.66
37064;BME280;23211;53.912;9.138;2022-12-29T22:46:14;100330.16;;;12.64;58.64
37064;BME280;23211;53.912;9.138;2022-12-29T22:49:00;100355.69;;;12.66;58.58
37064;BME280;23211;53.912;9.138;2022-12-29T22:51:46;100345.72;;;12.67;58.52
37064;BME280;23211;53.912;9.138;2022-12-29T22:54:32;100349.50;;;12.66;58.53
37064;BME280;23211;53.912;9.138;2022-12-29T22:57:17;100352.72;;;12.68;58.49
37064;BME280;23211;53.912;9.138;2022-12-29T23:00:05;100357.00;;;12.69;58.25
37064;BME280;23211;53.912;9.138;2022-12-29T23:02:52;100355.13;;;12.69;58.28
37064;BME280;23211;53.912;9.138;2022-12-29T23:05:38;100363.19;;;12.69;58.54
37064;BME280;23211;53.912;9.138;2022-12-29T23:08:25;100362.13;;;12.70;58.49
37064;BME280;23211;53.912;9.138;2022-12-29T23:11:12;100360.75;;;12.73;58.52
37064;BME280;23211;53.912;9.138;2022-12-29T23:13:57;100381.44;;;12.72;58.30
37064;BME280;23211;53.912;9.138;2022-12-29T23:16:44;100388.72;;;12.72;58.20
37064;BME280;23211;53.912;9.138;2022-12-29T23:19:30;100391.41;;;12.72;58.10
37064;BME280;23211;53.912;9.138;2022-12-29T23:22:16;100391.69;;;12.70;58.26
37064;BME280;23211;53.912;9.138;2022-12-29T23:25:02;100391.94;;;12.69;58.27
37064;BME280;23211;53.912;9.138;2022-12-29T23:27:47;100410.78;;;12.69;58.47
37064;BME280;23211;53.912;9.138;2022-12-29T23:30:33;100408.88;;;12.69;58.62
37064;BME280;23211;53.912;9.138;2022-12-29T23:33:19;100400.53;;;12.71;58.63
37064;BME280;23211;53.912;9.138;2022-12-29T23:36:07;100417.47;;;12.71;58.73
37064;BME280;23211;53.912;9.138;2022-12-29T23:38:54;100428.75;;;12.73;58.44
37064;BME280;23211;53.912;9.138;2022-12-29T23:41:40;100416.41;;;12.72;58.44
37064;BME280;23211;53.912;9.138;2022-12-29T23:44:25;100430.63;;;12.73;58.45
37064;BME280;23211;53.912;9.138;2022-12-29T23:47:11;100431.44;;;12.73;58.33
37064;BME280;23211;53.912;9.138;2022-12-29T23:49:58;100434.66;;;12.75;58.46
37064;BME280;23211;53.912;9.138;2022-12-29T23:52:43;100440.84;;;12.76;58.37
37064;BME280;23211;53.912;9.138;2022-12-29T23:55:29;100446.22;;;12.76;58.36
37064;BME280;23211;53.912;9.138;2022-12-29T23:58:15;100457.78;;;12.76;58.24
